CheckWX is a tool to help pilots better visualize weather data.  It is not intended as a substitute for an official pre-flight weather briefing.

08:12:13 UTC

KTOI METAR
Troy Municipal at N Kenneth Campbell Field Airport
Troy, Alabama, USA
Current

19 mins ago

KTOI 220753Z AUTO 21003KT 10SM OVC011 21/19 A3008 RMK AO2 CIG 009V014 SLP179 T02060194
Observed
Feb-22 @ 07:53 UTC
Wind
  • 210° at 3 KTS
Visibility
10 SM
Flight Rules
MVFR
Cloud Levels
  • Overcast at 1,100' AGL
Temperature
21°C / 70°F
Dewpoint
19°C / 66°F
Humidity
88%
Altimeter
30.08" Hg
Pressure
1017.9 hPa
Previous

1 hour ago

KTOI 220653Z AUTO 17004KT 10SM BKN011 21/19 A3007 RMK AO2 SLP179 T02060194
Observed
Feb-22 @ 06:53 UTC
Wind
  • 170° at 4 KTS
Visibility
10 SM
Flight Rules
MVFR
Cloud Levels
  • Broken at 1,100' AGL
Temperature
21°C / 70°F
Dewpoint
19°C / 66°F
Humidity
88%
Altimeter
30.07" Hg
Pressure
1017.9 hPa
Previous

2 hours ago

KTOI 220553Z AUTO 20007KT 10SM OVC010 21/20 A3008 RMK AO2 CIG 008V012 SLP179 T02060200 10228 20206 402830189 50002
Observed
Feb-22 @ 05:53 UTC
Wind
  • 200° at 7 KTS
Visibility
10 SM
Flight Rules
MVFR
Cloud Levels
  • Overcast at 1,000' AGL
Temperature
21°C / 70°F
Dewpoint
20°C / 68°F
Humidity
94%
Altimeter
30.08" Hg
Pressure
1017.9 hPa